North Dighton, Massachusetts
Current Conditions -  °F | °C
As of 9:52 AM on Thursday 23 Oct 2014 (Local Time) from KTAN Reporting Station
Overcast Overcast  
Wind Chill: 55°   Ceiling: 1200
Heat Index: 55°   Visibility: 10mi
Dew Point: 50°   Wind: 14mph
Humidity: 83%   Direction: 10°N
Pressure: 29.59"   Gusts: 30mph
Location:  41.86°N, 71.12°W
Report Text: KTAN 231352Z AUTO 01012G26KT 10SM OVC012 13/10 A2959 RMK AO2 PK WND 36026/1344 SLP020 T01280100
Loading
Personal Weather Stations






























Interactive Weather Map New forecast layout! Learn more

10-Day Weather Forecast

Advertisements
Track Severe Weather on mobile